Time;durP1;ratioP1;P1;durP2;ratioP2;P2;SDS_P1;SDS_P2;PMS_P1;PMS_P2;Temp;Humidity;BMP_temperature;BMP_pressure;BME280_temperature;BME280_humidity;BME280_pressure;Samples;Min_cycle;Max_cycle;Signal;HPM_P1;HPM_P2
2021/04/14 00:02:12;;;;;;;16.55;12.73;;;128.20;2252.80;;;;;;5052556;28;20071;-72
2021/04/14 00:04:38;;;;;;;16.38;13.02;;;128.10;2252.80;;;;;;5052572;28;20519;-72
2021/04/14 00:07:06;;;;;;;17.77;12.88;;;128.10;2252.80;;;;;;5052249;28;20021;-72
2021/04/14 00:09:32;;;;;;;18.58;12.15;;;128.00;2252.80;;;;;;5052657;28;20484;-73
2021/04/14 00:11:58;;;;;;;17.95;12.38;;;128.00;2252.80;;;;;;5050521;28;20111;-73
2021/04/14 00:14:25;;;;;;;19.70;14.10;;;128.00;2252.80;;;;;;5051040;28;20031;-72
2021/04/14 00:16:50;;;;;;;15.73;11.85;;;128.00;2252.80;;;;;;5052342;28;20375;-73
2021/04/14 00:19:16;;;;;;;15.73;11.13;;;128.00;2252.80;;;;;;5050971;28;20119;-72
2021/04/14 00:21:42;;;;;;;15.50;11.23;;;128.00;2252.80;;;;;;5051285;28;20013;-73
2021/04/14 00:24:11;;;;;;;14.55;10.73;;;128.00;2252.80;;;;;;5050856;28;20032;-73
2021/04/14 00:26:37;;;;;;;13.50;10.65;;;128.00;2252.80;;;;;;5051173;28;20028;-72
2021/04/14 00:29:02;;;;;;;16.45;12.63;;;128.00;2252.80;;;;;;5052131;28;20395;-73
2021/04/14 00:31:37;;;;;;;16.80;12.65;;;128.00;2252.80;;;;;;5052336;28;20119;-73
2021/04/14 00:34:11;;;;;;;15.10;12.43;;;128.00;2252.80;;;;;;5038524;28;20025;-73
2021/04/14 00:36:38;;;;;;;14.38;11.40;;;128.00;2252.80;;;;;;5050937;28;20036;-73
2021/04/14 00:39:07;;;;;;;16.42;11.70;;;128.00;2252.80;;;;;;5051877;28;20097;-72
2021/04/14 00:41:34;;;;;;;17.67;10.48;;;103.30;2227.20;;;;;;5050864;28;20029;-73
2021/04/14 00:44:01;;;;;;;13.50;10.57;;;103.30;2227.20;;;;;;5052097;28;20033;-74
2021/04/14 00:46:27;;;;;;;13.50;9.73;;;128.00;2252.80;;;;;;5052092;28;20021;-74
2021/04/14 00:48:52;;;;;;;13.00;9.98;;;128.00;2252.80;;;;;;5051907;28;20104;-74
2021/04/14 00:51:19;;;;;;;14.05;11.13;;;103.30;2227.20;;;;;;5051842;28;20075;-74
2021/04/14 00:53:45;;;;;;;15.68;11.02;;;128.00;2252.80;;;;;;5050491;28;20087;-74
2021/04/14 00:56:11;;;;;;;13.07;9.85;;;128.00;2252.80;;;;;;5052011;28;20025;-74
2021/04/14 00:58:37;;;;;;;14.10;10.60;;;128.00;2252.80;;;;;;5052077;28;20025;-74
2021/04/14 01:01:04;;;;;;;17.95;10.18;;;128.10;2252.80;;;;;;5050228;28;20040;-74
2021/04/14 01:03:33;;;;;;;13.52;10.85;;;128.00;2252.80;;;;;;5050736;28;20025;-74
2021/04/14 01:06:02;;;;;;;14.05;10.95;;;128.00;2252.80;;;;;;5050536;28;20024;-75
2021/04/14 01:08:28;;;;;;;13.38;11.90;;;128.00;2252.80;;;;;;5050345;28;20488;-74
2021/04/14 01:10:54;;;;;;;14.45;10.85;;;128.00;2252.80;;;;;;5051403;28;20033;-74
2021/04/14 01:13:20;;;;;;;15.50;10.43;;;128.10;2252.80;;;;;;5051732;28;20044;-74
2021/04/14 01:15:48;;;;;;;16.98;11.65;;;128.10;2252.80;;;;;;5054193;28;20021;-74
2021/04/14 01:18:36;;;;;;;13.73;10.15;;;128.10;2252.80;;;;;;5051181;28;20031;-74
2021/04/14 01:21:04;;;;;;;14.25;10.60;;;128.10;2252.80;;;;;;5052185;28;20083;-74
2021/04/14 01:23:31;;;;;;;12.82;10.02;;;128.00;2252.80;;;;;;5045902;28;20018;-74
2021/04/14 01:25:57;;;;;;;12.07;9.85;;;128.00;2252.80;;;;;;5050220;28;20025;-74
2021/04/14 01:28:41;;;;;;;15.30;10.75;;;128.00;2252.80;;;;;;5055203;28;20476;-74
2021/04/14 01:31:10;;;;;;;17.10;10.88;;;128.10;2252.80;;;;;;5054240;28;20021;-73
2021/04/14 01:33:36;;;;;;;14.48;10.52;;;128.00;2252.80;;;;;;5054055;28;20024;-74
2021/04/14 01:36:04;;;;;;;14.30;10.52;;;128.00;2252.80;;;;;;5054121;28;20021;-74
2021/04/14 01:38:30;;;;;;;14.65;10.75;;;128.10;2252.80;;;;;;5053557;28;20039;-74
2021/04/14 01:40:57;;;;;;;15.20;11.27;;;128.00;2252.80;;;;;;5055399;28;20095;-75
2021/04/14 01:43:22;;;;;;;16.08;12.07;;;128.00;2252.80;;;;;;5053914;28;20017;-74
2021/04/14 01:45:49;;;;;;;16.17;11.57;;;128.00;2252.80;;;;;;5055224;28;20027;-74
2021/04/14 01:48:16;;;;;;;13.85;10.88;;;128.10;2252.80;;;;;;5053766;28;20056;-74
2021/04/14 01:50:42;;;;;;;13.68;10.93;;;128.00;2252.80;;;;;;5054149;28;20107;-74
2021/04/14 01:53:10;;;;;;;14.18;10.60;;;128.00;2252.80;;;;;;5053338;28;20037;-74
2021/04/14 01:55:37;;;;;;;13.43;9.65;;;128.00;2252.80;;;;;;5053437;28;20110;-75
2021/04/14 01:58:04;;;;;;;15.60;11.07;;;128.00;2252.80;;;;;;5054962;28;20488;-74
2021/04/14 02:00:54;;;;;;;14.13;10.02;;;128.00;2252.80;;;;;;5053581;28;20079;-75
2021/04/14 02:03:22;;;;;;;14.63;10.52;;;128.00;2252.80;;;;;;5053630;28;20052;-75
2021/04/14 02:05:48;;;;;;;15.10;11.15;;;128.00;2252.80;;;;;;5053552;28;20025;-75
2021/04/14 02:08:14;;;;;;;16.40;10.73;;;128.00;2252.80;;;;;;5054613;28;20039;-75
2021/04/14 02:10:40;;;;;;;14.68;11.30;;;128.00;2252.80;;;;;;5054962;28;20020;-75
2021/04/14 02:13:24;;;;;;;17.20;11.65;;;128.00;2252.80;;;;;;5053100;28;20501;-74
2021/04/14 02:15:51;;;;;;;16.30;11.77;;;128.00;2252.80;;;;;;5042863;28;20439;-74
2021/04/14 02:18:18;;;;;;;14.77;11.23;;;128.00;2252.80;;;;;;5054411;28;20017;-76
2021/04/14 02:20:44;;;;;;;14.63;10.52;;;128.00;2252.80;;;;;;5054562;28;20020;-74
2021/04/14 02:23:17;;;;;;;14.98;11.10;;;128.00;2252.80;;;;;;5054739;28;20070;-74
2021/04/14 02:25:43;;;;;;;13.65;10.25;;;128.00;2252.80;;;;;;5054038;28;20452;-74
2021/04/14 02:28:09;;;;;;;15.55;11.73;;;103.30;2227.20;;;;;;5053180;28;20056;-74
2021/04/14 02:30:36;;;;;;;14.63;10.68;;;103.30;2227.20;;;;;;5052697;28;20032;-76
2021/04/14 02:33:03;;;;;;;13.20;10.23;;;103.30;2227.20;;;;;;5054599;28;20116;-76
2021/04/14 02:35:29;;;;;;;15.07;11.05;;;103.30;2227.20;;;;;;5054226;28;20078;-75
2021/04/14 02:37:55;;;;;;;13.88;10.68;;;103.30;2227.20;;;;;;5053888;28;20025;-75
2021/04/14 02:40:21;;;;;;;13.35;10.27;;;103.30;2227.20;;;;;;5052566;28;20044;-76
2021/04/14 02:42:47;;;;;;;14.85;10.05;;;103.20;2227.20;;;;;;5052705;28;20025;-75
2021/04/14 02:45:15;;;;;;;12.57;10.00;;;103.20;2227.20;;;;;;5053937;28;20029;-76
2021/04/14 02:47:40;;;;;;;16.85;11.70;;;103.10;2227.20;;;;;;5052803;28;20025;-75
2021/04/14 02:50:08;;;;;;;14.50;10.65;;;103.10;2227.20;;;;;;5043847;28;20021;-75
2021/04/14 02:52:34;;;;;;;16.98;10.82;;;103.10;2227.20;;;;;;5048682;28;20040;-75
2021/04/14 02:55:00;;;;;;;14.73;10.35;;;103.20;2227.20;;;;;;5053520;28;20056;-75
2021/04/14 02:57:26;;;;;;;13.43;10.23;;;103.20;2227.20;;;;;;5052468;28;20435;-75
2021/04/14 02:59:53;;;;;;;13.80;9.88;;;103.20;2227.20;;;;;;5053744;28;20021;-75
2021/04/14 03:02:20;;;;;;;15.30;10.13;;;103.20;2227.20;;;;;;5053645;28;20075;-75
2021/04/14 03:04:46;;;;;;;14.60;10.02;;;103.30;2227.20;;;;;;5053592;28;20067;-74
2021/04/14 03:07:12;;;;;;;13.73;9.80;;;103.30;2227.20;;;;;;5052320;28;20037;-75
2021/04/14 03:09:38;;;;;;;12.45;8.93;;;103.20;2227.20;;;;;;5043039;28;20025;-74
2021/04/14 03:12:04;;;;;;;13.35;9.50;;;103.20;2227.20;;;;;;5050772;28;20025;-74
2021/04/14 03:14:30;;;;;;;9.90;7.53;;;103.30;2227.20;;;;;;5053446;28;20044;-74
2021/04/14 03:16:56;;;;;;;11.38;8.10;;;103.20;2227.20;;;;;;5052107;28;20029;-74
2021/04/14 03:19:22;;;;;;;11.55;8.80;;;103.20;2227.20;;;;;;5053116;28;20072;-76
2021/04/14 03:21:47;;;;;;;9.43;7.35;;;103.30;2227.20;;;;;;5053428;28;20028;-75
2021/04/14 03:24:13;;;;;;;9.82;7.85;;;103.20;2227.20;;;;;;5051895;28;20036;-77
2021/04/14 03:26:39;;;;;;;10.05;7.15;;;103.20;2227.20;;;;;;5053447;28;20028;-76
2021/04/14 03:29:04;;;;;;;12.18;7.05;;;103.20;2227.20;;;;;;5053145;28;20028;-76
2021/04/14 03:31:33;;;;;;;10.45;8.10;;;103.20;2227.20;;;;;;5058173;28;20042;-76
2021/04/14 03:33:58;;;;;;;10.95;7.43;;;103.20;2227.20;;;;;;5069202;28;20029;-75
2021/04/14 03:36:24;;;;;;;13.38;9.73;;;103.30;2227.20;;;;;;5058708;28;20035;-75
2021/04/14 03:38:50;;;;;;;11.05;7.70;;;103.30;2227.20;;;;;;5052562;28;20029;-74
2021/04/14 03:41:16;;;;;;;12.85;8.18;;;103.20;2227.20;;;;;;5049815;28;20087;-75
2021/04/14 03:43:42;;;;;;;10.45;8.32;;;103.30;2227.20;;;;;;5061700;28;20025;-74
2021/04/14 03:46:08;;;;;;;11.15;8.38;;;103.30;2227.20;;;;;;5055760;28;20067;-73
2021/04/14 03:48:33;;;;;;;9.63;7.15;;;103.30;2227.20;;;;;;5052987;28;20500;-73
2021/04/14 03:50:59;;;;;;;10.93;7.68;;;103.30;2227.20;;;;;;5052790;28;20051;-74
2021/04/14 03:53:34;;;;;;;11.23;7.80;;;103.30;2227.20;;;;;;5053746;28;20082;-74
2021/04/14 03:56:06;;;;;;;11.13;7.43;;;103.30;2227.20;;;;;;5058124;28;20135;-76
2021/04/14 03:58:34;;;;;;;8.48;6.22;;;103.30;2227.20;;;;;;5049489;28;20064;-75
2021/04/14 04:01:03;;;;;;;9.32;6.45;;;103.30;2227.20;;;;;;5057123;28;20553;-74
2021/04/14 04:03:29;;;;;;;8.60;6.25;;;103.20;2227.20;;;;;;5047418;28;20499;-74
2021/04/14 04:05:56;;;;;;;7.78;5.75;;;103.20;2227.20;;;;;;5052770;28;20021;-74
2021/04/14 04:08:22;;;;;;;7.35;5.20;;;103.10;2227.20;;;;;;5051241;28;20021;-74
2021/04/14 04:10:47;;;;;;;7.43;5.20;;;103.10;2227.20;;;;;;5050773;28;20040;-73
2021/04/14 04:13:15;;;;;;;9.02;6.50;;;103.10;2227.20;;;;;;5037338;28;20086;-75
2021/04/14 04:15:41;;;;;;;9.50;6.93;;;103.10;2227.20;;;;;;5052544;28;20032;-75
2021/04/14 04:18:07;;;;;;;9.07;6.63;;;103.10;2227.20;;;;;;5034789;28;20025;-74
2021/04/14 04:20:34;;;;;;;7.93;6.22;;;103.20;2227.20;;;;;;5052494;28;20055;-75
2021/04/14 04:23:01;;;;;;;10.98;6.72;;;103.10;2227.20;;;;;;5051717;28;20029;-75
2021/04/14 04:25:27;;;;;;;11.38;7.53;;;103.20;2227.20;;;;;;5052008;28;20017;-73
2021/04/14 04:27:53;;;;;;;16.40;9.52;;;103.20;2227.20;;;;;;5052318;28;20387;-73
2021/04/14 04:30:20;;;;;;;18.17;10.73;;;103.20;2227.20;;;;;;5050738;28;20029;-73
2021/04/14 04:32:45;;;;;;;13.75;9.38;;;103.20;2227.20;;;;;;5051055;28;20051;-73
2021/04/14 04:35:12;;;;;;;13.20;9.02;;;103.20;2227.20;;;;;;5052294;28;20468;-73
2021/04/14 04:37:37;;;;;;;18.65;10.52;;;103.20;2227.20;;;;;;5047665;28;20118;-73
2021/04/14 04:40:05;;;;;;;9.88;7.50;;;103.20;2227.20;;;;;;5056876;28;20909;-73
2021/04/14 04:42:31;;;;;;;13.90;9.68;;;103.20;2227.20;;;;;;5046517;28;20049;-72
2021/04/14 04:44:57;;;;;;;9.93;6.97;;;103.20;2227.20;;;;;;5048646;28;20130;-73
2021/04/14 04:47:23;;;;;;;10.77;7.00;;;103.20;2227.20;;;;;;5044886;28;20029;-74
2021/04/14 04:49:49;;;;;;;14.30;8.93;;;103.10;2227.20;;;;;;5049368;28;20025;-74
2021/04/14 04:52:15;;;;;;;8.63;5.68;;;103.10;2227.20;;;;;;5046189;28;20147;-74
2021/04/14 04:54:40;;;;;;;7.95;6.30;;;103.10;2227.20;;;;;;5047822;28;20496;-73
2021/04/14 04:57:06;;;;;;;9.55;5.68;;;103.10;2227.20;;;;;;5050107;28;20034;-73
2021/04/14 04:59:32;;;;;;;9.73;6.40;;;103.20;2227.20;;;;;;5048810;28;20108;-74
2021/04/14 05:01:59;;;;;;;15.60;9.20;;;103.10;2227.20;;;;;;5046342;28;20036;-74
2021/04/14 05:04:25;;;;;;;14.07;10.13;;;103.10;2227.20;;;;;;5051204;28;20021;-73
2021/04/14 05:06:51;;;;;;;17.73;9.63;;;103.00;2227.20;;;;;;5057776;28;20379;-73
2021/04/14 05:09:16;;;;;;;15.55;10.98;;;103.00;2227.20;;;;;;5048826;28;20029;-74
2021/04/14 05:11:42;;;;;;;12.77;9.05;;;103.00;2227.20;;;;;;5058115;28;20053;-74
2021/04/14 05:14:08;;;;;;;12.65;7.78;;;103.00;2227.20;;;;;;5055549;28;20021;-73
2021/04/14 05:16:34;;;;;;;11.98;7.05;;;103.10;2227.20;;;;;;5055871;28;20036;-74
2021/04/14 05:19:00;;;;;;;10.55;6.93;;;103.10;2227.20;;;;;;5060724;28;20082;-75
2021/04/14 05:21:26;;;;;;;9.95;6.03;;;103.00;2227.20;;;;;;5055923;28;20506;-74
2021/04/14 05:23:51;;;;;;;11.20;7.22;;;103.00;2227.20;;;;;;5055525;28;20036;-74
2021/04/14 05:26:17;;;;;;;8.18;5.85;;;103.00;2227.20;;;;;;5055571;28;20040;-74
2021/04/14 05:28:44;;;;;;;12.63;9.05;;;103.00;2227.20;;;;;;5054243;28;20032;-74
2021/04/14 05:31:11;;;;;;;17.85;12.00;;;103.00;2227.20;;;;;;5051530;28;20382;-74
2021/04/14 05:33:37;;;;;;;10.52;7.13;;;102.90;2227.20;;;;;;5046606;28;20032;-74
2021/04/14 05:36:04;;;;;;;12.85;9.15;;;102.90;2227.20;;;;;;5055863;28;20028;-73
2021/04/14 05:38:30;;;;;;;15.90;10.32;;;102.90;2227.20;;;;;;5044477;28;20387;-73
2021/04/14 05:40:57;;;;;;;14.32;9.25;;;103.00;2227.20;;;;;;5045613;28;20021;-73
2021/04/14 05:43:30;;;;;;;14.40;10.68;;;103.00;2227.20;;;;;;5048975;28;20028;-74
2021/04/14 05:45:58;;;;;;;17.42;10.98;;;103.00;2227.20;;;;;;5046325;28;20021;-74
2021/04/14 05:48:24;;;;;;;18.33;11.15;;;103.00;2227.20;;;;;;5053624;28;20021;-74
2021/04/14 05:50:50;;;;;;;13.63;9.90;;;103.00;2227.20;;;;;;5043607;28;20022;-74
2021/04/14 05:53:16;;;;;;;16.17;11.35;;;103.00;2227.20;;;;;;5048582;28;20029;-73
2021/04/14 05:55:42;;;;;;;16.40;11.65;;;103.10;2227.20;;;;;;5054660;28;20045;-74
2021/04/14 05:58:08;;;;;;;14.73;10.48;;;103.20;2227.20;;;;;;5048531;28;20040;-73
2021/04/14 06:00:34;;;;;;;18.58;12.73;;;103.10;2227.20;;;;;;5051278;28;20060;-73
2021/04/14 06:02:59;;;;;;;17.30;12.15;;;103.10;2227.20;;;;;;5041346;28;20017;-74
2021/04/14 06:05:25;;;;;;;16.63;11.82;;;103.10;2227.20;;;;;;5050131;28;20534;-73
2021/04/14 06:07:52;;;;;;;17.63;11.73;;;103.10;2227.20;;;;;;5054618;28;20025;-74
2021/04/14 06:10:24;;;;;;;19.30;13.73;;;103.10;2227.20;;;;;;5054533;28;20033;-74
2021/04/14 06:12:53;;;;;;;15.80;11.88;;;103.10;2227.20;;;;;;5044106;28;20025;-74
2021/04/14 06:15:31;;;;;;;14.63;11.20;;;103.10;2227.20;;;;;;5054431;28;20029;-75
2021/04/14 06:17:58;;;;;;;15.02;11.25;;;103.20;2227.20;;;;;;5054863;28;20155;-74
2021/04/14 06:20:26;;;;;;;15.18;11.13;;;103.30;2227.20;;;;;;5054043;28;20066;-73
2021/04/14 06:22:52;;;;;;;17.10;11.68;;;103.10;2227.20;;;;;;5053398;28;20129;-73
2021/04/14 06:25:20;;;;;;;15.35;10.50;;;103.10;2227.20;;;;;;5054123;28;20151;-73
2021/04/14 06:28:00;;;;;;;16.58;10.98;;;103.20;2227.20;;;;;;5052485;28;20057;-73
2021/04/14 06:30:27;;;;;;;14.52;10.93;;;128.00;2252.80;;;;;;5043962;28;20032;-74
2021/04/14 06:32:52;;;;;;;15.57;11.88;;;103.30;2227.20;;;;;;5051770;28;20033;-73
2021/04/14 06:35:20;;;;;;;16.73;12.20;;;103.30;2227.20;;;;;;5049951;28;20089;-74
2021/04/14 06:37:45;;;;;;;14.98;11.48;;;128.00;2252.80;;;;;;5054526;28;20110;-73
2021/04/14 06:43:11;;;;;;;18.35;12.30;;;103.30;2227.20;;;;;;5046372;28;20010;-73
2021/04/14 06:45:44;;;;;;;17.98;11.45;;;128.00;2252.80;;;;;;5043560;28;20155;-73
2021/04/14 06:48:31;;;;;;;13.85;10.82;;;128.10;2252.80;;;;;;5053347;28;20074;-73
2021/04/14 06:51:00;;;;;;;14.95;10.25;;;128.10;2252.80;;;;;;5045282;28;20028;-73
2021/04/14 06:53:42;;;;;;;14.40;11.55;;;128.20;2252.80;;;;;;5049887;28;21013;-73
2021/04/14 06:56:16;;;;;;;13.73;10.07;;;128.20;2252.80;;;;;;5042274;28;20033;-73
2021/04/14 06:58:43;;;;;;;15.40;10.93;;;128.10;2252.80;;;;;;5050434;28;20026;-74
2021/04/14 07:01:17;;;;;;;13.27;9.77;;;128.10;2252.80;;;;;;5047918;28;20057;-75
2021/04/14 07:04:04;;;;;;;16.73;12.73;;;128.20;2252.80;;;;;;5048469;28;20051;-75
2021/04/14 07:06:32;;;;;;;;;;;128.30;2252.80;;;;;;5057438;28;20030;-75
2021/04/14 07:09:27;;;;;;;13.95;10.63;;;128.20;2252.80;;;;;;5055214;28;19909;-75
2021/04/14 07:11:55;;;;;;;16.77;11.98;;;128.30;2252.80;;;;;;5044418;28;20049;-76
2021/04/14 07:14:21;;;;;;;16.75;11.65;;;128.30;2252.80;;;;;;5048124;28;20399;-76
2021/04/14 07:17:06;;;;;;;15.00;10.70;;;128.40;2252.80;;;;;;5043973;28;20447;-75
2021/04/14 07:19:51;;;;;;;14.68;10.40;;;128.50;2252.80;;;;;;5042683;28;20071;-75
2021/04/14 07:22:50;;;;;;;14.27;10.98;;;128.50;2252.80;;;;;;5051048;28;20475;-75
2021/04/14 07:25:43;;;;;;;15.93;11.85;;;128.40;2252.80;;;;;;5044484;28;20052;-75
2021/04/14 07:28:19;;;;;;;15.88;11.50;;;128.40;2252.80;;;;;;5050486;28;20017;-75
2021/04/14 07:31:20;;;;;;;13.43;10.10;;;128.40;2252.80;;;;;;5051661;28;20163;-76
2021/04/14 07:34:12;;;;;;;16.02;11.52;;;128.40;2252.80;;;;;;5029847;28;20361;-75
2021/04/14 07:36:49;;;;;;;13.90;10.40;;;128.60;2252.80;;;;;;5045794;28;20025;-75
2021/04/14 07:39:26;;;;;;;13.65;10.82;;;128.60;2252.80;;;;;;5057675;28;20049;-75
2021/04/14 07:41:58;;;;;;;14.90;11.30;;;128.80;2252.80;;;;;;5051317;28;20033;-76
2021/04/14 07:44:56;;;;;;;14.98;9.88;;;128.70;2252.80;;;;;;5058178;28;20040;-75
2021/04/14 07:47:23;;;;;;;15.82;11.82;;;128.80;2252.80;;;;;;5002879;28;20058;-75
2021/04/14 07:49:48;;;;;;;13.55;9.48;;;128.70;2252.80;;;;;;5007944;28;20188;-74
2021/04/14 07:52:24;;;;;;;15.85;10.18;;;128.70;2252.80;;;;;;5010111;28;20045;-75
2021/04/14 07:54:51;;;;;;;14.70;10.95;;;128.80;2252.80;;;;;;4993573;28;20440;-75
2021/04/14 07:57:33;;;;;;;12.27;9.10;;;128.80;2252.80;;;;;;5007665;28;20084;-74
2021/04/14 08:00:17;;;;;;;13.45;9.23;;;128.90;2252.80;;;;;;4993383;28;20034;-75
2021/04/14 08:02:45;;;;;;;11.75;9.70;;;128.90;2252.80;;;;;;5006685;28;20398;-74
2021/04/14 08:05:19;;;;;;;13.55;9.70;;;128.90;2252.80;;;;;;4992203;28;20033;-75
2021/04/14 08:07:48;;;;;;;12.57;9.15;;;153.60;2252.80;;;;;;5006681;28;20050;-76
2021/04/14 08:10:18;;;;;;;11.27;8.85;;;153.60;2252.80;;;;;;4989296;28;20424;-76
2021/04/14 08:13:00;;;;;;;12.13;8.85;;;153.70;2252.80;;;;;;5005981;28;20740;-75
2021/04/14 08:15:42;;;;;;;14.20;10.15;;;153.80;2252.80;;;;;;4989783;28;20030;-75
2021/04/14 08:18:17;;;;;;;16.20;10.25;;;153.80;2252.80;;;;;;5007811;28;20034;-76
2021/04/14 08:20:45;;;;;;;12.77;8.80;;;153.90;2252.80;;;;;;5001810;28;20037;-75
2021/04/14 08:23:25;;;;;;;13.23;9.02;;;153.90;2252.80;;;;;;4997042;28;20030;-75
2021/04/14 08:25:56;;;;;;;11.77;8.98;;;154.00;2252.80;;;;;;5044547;28;20040;-75
2021/04/14 08:28:28;;;;;;;14.57;8.40;;;154.10;2252.80;;;;;;5040334;28;20506;-74
2021/04/14 08:31:05;;;;;;;10.77;7.85;;;154.10;2252.80;;;;;;5059596;28;20033;-75
2021/04/14 08:33:31;;;;;;;11.38;8.75;;;154.20;2252.80;;;;;;5055954;28;20415;-74
2021/04/14 08:36:17;;;;;;;9.27;8.25;;;154.20;2252.80;;;;;;5044608;28;20029;-74
2021/04/14 08:38:43;;;;;;;9.55;7.28;;;154.20;2252.80;;;;;;5046450;28;20025;-75
2021/04/14 08:41:20;;;;;;;11.52;8.63;;;154.20;2252.80;;;;;;5044174;28;20017;-74
2021/04/14 08:43:48;;;;;;;13.07;9.43;;;154.30;2252.80;;;;;;5048085;28;20017;-74
2021/04/14 08:46:19;;;;;;;13.38;8.55;;;154.30;2252.80;;;;;;5042608;28;20037;-74
2021/04/14 08:49:00;;;;;;;13.07;10.57;;;154.40;2252.80;;;;;;5043105;28;20029;-75
2021/04/14 08:51:27;;;;;;;14.68;9.10;;;154.40;2252.80;;;;;;5040681;28;20033;-75
2021/04/14 08:53:56;;;;;;;12.25;9.25;;;154.40;2252.80;;;;;;5047602;28;20041;-74
2021/04/14 08:56:24;;;;;;;12.90;9.18;;;154.30;2252.80;;;;;;5052749;28;20488;-75
2021/04/14 08:58:52;;;;;;;12.05;9.55;;;154.10;2252.80;;;;;;5045308;28;20533;-74
2021/04/14 09:01:17;;;;;;;12.90;9.93;;;154.10;2252.80;;;;;;5037101;28;20013;-75
2021/04/14 09:03:46;;;;;;;16.23;11.25;;;154.00;2252.80;;;;;;5050269;28;20369;-74
2021/04/14 09:06:13;;;;;;;12.60;10.00;;;154.00;2252.80;;;;;;5043056;28;20021;-76
2021/04/14 09:08:46;;;;;;;13.77;10.45;;;154.00;2252.80;;;;;;5047903;28;20057;-76
2021/04/14 09:11:38;;;;;;;13.90;10.23;;;153.90;2252.80;;;;;;5041042;28;20489;-76
2021/04/14 09:14:21;;;;;;;16.98;11.90;;;154.00;2252.80;;;;;;5038401;28;20384;-77
2021/04/14 09:16:54;;;;;;;16.48;11.20;;;154.00;2252.80;;;;;;5041692;28;20061;-78
2021/04/14 09:19:24;;;;;;;13.02;8.93;;;154.10;2252.80;;;;;;5047975;28;20027;-78
2021/04/14 09:21:59;;;;;;;15.75;10.85;;;154.10;2252.80;;;;;;5042380;28;20028;-78
2021/04/14 09:24:44;;;;;;;11.90;8.60;;;154.10;2252.80;;;;;;5047791;28;20029;-77
2021/04/14 09:27:22;;;;;;;12.93;8.70;;;154.20;2252.80;;;;;;5047450;28;20369;-76
2021/04/14 09:29:58;;;;;;;11.98;9.25;;;154.10;2252.80;;;;;;5045532;28;20033;-77
2021/04/14 09:32:46;;;;;;;16.50;8.50;;;154.30;2252.80;;;;;;5055889;28;20022;-78
2021/04/14 09:35:32;;;;;;;12.30;8.52;;;154.40;2252.80;;;;;;5039810;28;20092;-78
2021/04/14 09:38:04;;;;;;;16.75;8.90;;;154.40;2252.80;;;;;;5048316;28;20044;-78
2021/04/14 09:40:33;;;;;;;12.23;9.30;;;154.40;2252.80;;;;;;5050758;28;20507;-76
2021/04/14 09:42:59;;;;;;;10.10;7.93;;;154.40;2252.80;;;;;;5040183;28;20041;-77
2021/04/14 09:45:27;;;;;;;12.10;8.75;;;154.40;2252.80;;;;;;5047399;28;20446;-76
2021/04/14 09:47:59;;;;;;;12.95;8.82;;;154.40;2252.80;;;;;;5063890;28;20025;-78
2021/04/14 09:50:28;;;;;;;14.35;10.65;;;154.40;2252.80;;;;;;5047937;28;20503;-77
2021/04/14 09:53:00;;;;;;;12.25;8.65;;;154.50;2252.80;;;;;;5051496;28;20033;-77
2021/04/14 09:55:52;;;;;;;17.30;10.57;;;179.20;2252.80;;;;;;5059998;28;20115;-78
2021/04/14 09:58:52;;;;;;;15.88;10.05;;;154.50;2252.80;;;;;;5043028;28;20025;-77
2021/04/14 10:01:23;;;;;;;13.38;9.70;;;154.50;2252.80;;;;;;5045996;28;20120;-77
2021/04/14 10:03:53;;;;;;;13.52;10.07;;;179.20;2252.80;;;;;;5057046;28;20034;-78
2021/04/14 10:06:23;;;;;;;13.52;10.77;;;179.20;2252.80;;;;;;5050414;28;20029;-77
2021/04/14 10:08:56;;;;;;;15.63;10.68;;;179.20;2252.80;;;;;;5060413;28;20428;-77
2021/04/14 10:11:34;;;;;;;13.38;9.50;;;179.40;2252.80;;;;;;5049632;28;20028;-77
2021/04/14 10:14:09;;;;;;;16.33;10.63;;;179.70;2252.80;;;;;;5047995;28;20296;-78
2021/04/14 10:16:35;;;;;;;11.68;8.57;;;180.00;2252.80;;;;;;5063482;28;20055;-77
2021/04/14 10:19:04;;;;;;;11.10;8.05;;;180.00;2252.80;;;;;;5057342;28;20066;-77
2021/04/14 10:21:31;;;;;;;12.40;8.27;;;179.90;2252.80;;;;;;5053271;28;20025;-77
2021/04/14 10:24:04;;;;;;;11.32;8.13;;;179.70;2252.80;;;;;;5061243;28;20027;-80
2021/04/14 10:26:32;;;;;;;8.55;6.72;;;179.70;2252.80;;;;;;5063965;28;20507;-80
2021/04/14 10:29:01;;;;;;;12.18;8.77;;;179.60;2252.80;;;;;;5056823;28;20025;-79
2021/04/14 10:31:30;;;;;;;13.82;8.38;;;179.70;2252.80;;;;;;5057102;28;20028;-77
2021/04/14 10:34:10;;;;;;;16.30;9.82;;;179.80;2252.80;;;;;;5059398;28;20116;-80
2021/04/14 10:36:39;;;;;;;9.93;6.68;;;179.80;2252.80;;;;;;5059723;28;20358;-79
2021/04/14 10:39:08;;;;;;;10.05;6.60;;;179.50;2252.80;;;;;;5050865;28;20120;-79
2021/04/14 10:41:34;;;;;;;10.23;6.65;;;179.50;2252.80;;;;;;5054739;28;20021;-78
2021/04/14 10:44:00;;;;;;;11.20;8.15;;;179.70;2252.80;;;;;;5065657;28;20093;-78
2021/04/14 10:46:35;;;;;;;7.38;6.20;;;179.70;2252.80;;;;;;5051086;28;20116;-78
2021/04/14 10:49:08;;;;;;;9.10;6.82;;;179.70;2252.80;;;;;;5057532;28;20017;-79
2021/04/14 10:51:43;;;;;;;8.73;5.60;;;179.60;2252.80;;;;;;5059613;28;20025;-78
2021/04/14 10:54:11;;;;;;;8.88;5.55;;;179.70;2252.80;;;;;;5058151;28;20551;-79
2021/04/14 10:56:38;;;;;;;7.82;5.88;;;179.70;2252.80;;;;;;5064747;28;20579;-78
2021/04/14 10:59:11;;;;;;;17.10;12.15;;;179.90;2252.80;;;;;;5053913;28;20025;-79
2021/04/14 11:01:43;;;;;;;6.97;5.03;;;180.10;2252.80;;;;;;5040444;28;20029;-79
2021/04/14 11:04:26;;;;;;;8.23;6.05;;;180.00;2252.80;;;;;;5044396;28;20021;-78
2021/04/14 11:06:58;;;;;;;9.38;7.25;;;180.00;2252.80;;;;;;5044562;28;20120;-78
2021/04/14 11:09:25;;;;;;;8.00;5.45;;;179.90;2252.80;;;;;;5050124;28;20021;-77
2021/04/14 11:11:51;;;;;;;6.80;4.95;;;180.00;2252.80;;;;;;5039398;28;20021;-75
2021/04/14 11:14:19;;;;;;;9.82;5.95;;;180.10;2252.80;;;;;;5045843;28;20527;-75
2021/04/14 11:16:46;;;;;;;8.98;6.03;;;180.10;2252.80;;;;;;5060590;28;20071;-76
2021/04/14 11:19:25;;;;;;;8.13;5.18;;;180.00;2252.80;;;;;;5047523;28;20112;-77
2021/04/14 11:22:03;;;;;;;11.75;7.03;;;180.00;2252.80;;;;;;5044627;28;20101;-76
2021/04/14 11:24:29;;;;;;;19.30;11.55;;;180.10;2252.80;;;;;;5049533;28;20499;-76
2021/04/14 11:26:58;;;;;;;7.97;5.55;;;204.90;2252.80;;;;;;5051807;28;20044;-77
2021/04/14 11:29:32;;;;;;;8.48;6.05;;;205.00;2252.80;;;;;;5055186;28;20025;-76
2021/04/14 11:32:03;;;;;;;8.10;6.28;;;204.90;2252.80;;;;;;5048167;28;20043;-75
2021/04/14 11:34:34;;;;;;;8.50;6.30;;;180.10;2252.80;;;;;;5046448;28;20032;-77
2021/04/14 11:37:20;;;;;;;8.80;5.35;;;204.90;2252.80;;;;;;5047610;28;20112;-76
2021/04/14 11:39:48;;;;;;;7.72;5.30;;;204.90;2252.80;;;;;;5044086;28;20017;-76
2021/04/14 11:42:16;;;;;;;12.18;6.63;;;204.90;2252.80;;;;;;5045741;28;20017;-77
2021/04/14 11:44:45;;;;;;;7.68;5.22;;;205.00;2252.80;;;;;;5040448;28;20021;-77
2021/04/14 11:47:33;;;;;;;7.93;6.30;;;205.10;2252.80;;;;;;5040384;28;20104;-77
2021/04/14 11:50:10;;;;;;;9.15;5.75;;;205.30;2252.80;;;;;;5046136;28;20074;-76
2021/04/14 11:52:49;;;;;;;11.05;6.68;;;205.20;2252.80;;;;;;5062233;28;20484;-76
2021/04/14 11:55:21;;;;;;;11.90;6.70;;;205.10;2252.80;;;;;;5046584;28;20492;-77
2021/04/14 11:57:52;;;;;;;6.50;4.50;;;204.90;2252.80;;;;;;5041825;28;20508;-76
2021/04/14 12:00:21;;;;;;;6.13;4.70;;;204.90;2252.80;;;;;;5045663;28;20052;-77
2021/04/14 12:02:49;;;;;;;8.38;5.38;;;180.10;2252.80;;;;;;5057469;28;20090;-77
2021/04/14 12:05:16;;;;;;;6.75;4.90;;;180.10;2252.80;;;;;;5043404;28;20074;-78
2021/04/14 12:07:43;;;;;;;7.38;4.90;;;180.00;2252.80;;;;;;5043424;28;20034;-78
2021/04/14 12:10:09;;;;;;;6.45;4.70;;;180.00;2252.80;;;;;;5043194;28;20060;-78
2021/04/14 12:12:35;;;;;;;8.75;6.40;;;179.80;2252.80;;;;;;5042612;28;20060;-78
2021/04/14 12:15:01;;;;;;;9.23;5.90;;;179.80;2252.80;;;;;;5049802;28;20533;-77
2021/04/14 12:17:26;;;;;;;9.82;6.18;;;179.80;2252.80;;;;;;5040853;28;20033;-78
2021/04/14 12:19:52;;;;;;;11.27;7.47;;;179.80;2252.80;;;;;;5038372;28;20037;-77
2021/04/14 12:22:19;;;;;;;15.32;9.65;;;179.90;2252.80;;;;;;5038102;28;20025;-77
2021/04/14 12:24:46;;;;;;;11.18;7.68;;;179.90;2252.80;;;;;;5049612;28;20112;-78